Time;durP1;ratioP1;P1;durP2;ratioP2;P2;SDS_P1;SDS_P2;PMS_P1;PMS_P2;Temp;Humidity;BMP_temperature;BMP_pressure;BME280_temperature;BME280_humidity;BME280_pressure;Samples;Min_cycle;Max_cycle;Signal;HPM_P1;HPM_P2
2022/04/24 01:05:30;;;;;;;6.13;3.80;;;;;;;;;;5071395;27;20357;-80
2022/04/24 01:07:56;;;;;;;4.75;3.13;;;;;;;;;;5055934;28;20045;-80
2022/04/24 01:10:23;;;;;;;7.30;4.30;;;;;;;;;;5040205;28;20041;-80
2022/04/24 01:12:49;;;;;;;5.20;3.50;;;;;;;;;;5059068;28;20041;-80
2022/04/24 01:15:15;;;;;;;4.25;3.08;;;;;;;;;;5051716;28;20045;-80
2022/04/24 01:17:41;;;;;;;7.10;3.70;;;;;;;;;;5059258;28;20132;-80
2022/04/24 01:20:07;;;;;;;6.63;3.60;;;;;;;;;;5053726;28;20168;-80
2022/04/24 01:22:34;;;;;;;5.38;2.95;;;;;;;;;;5038291;28;20530;-80
2022/04/24 01:25:00;;;;;;;8.90;4.22;;;;;;;;;;5055297;28;20049;-80
2022/04/24 01:27:26;;;;;;;6.50;4.20;;;;;;;;;;5058333;28;20039;-81
2022/04/24 01:29:52;;;;;;;12.52;4.85;;;;;;;;;;5040161;28;20044;-80
2022/04/24 01:32:18;;;;;;;5.93;3.45;;;;;;;;;;5043448;28;20052;-80
2022/04/24 01:34:44;;;;;;;8.73;4.18;;;;;;;;;;5052013;28;20040;-80
2022/04/24 01:37:11;;;;;;;6.68;4.97;;;;;;;;;;5039968;28;20033;-80
2022/04/24 01:39:37;;;;;;;8.55;4.10;;;;;;;;;;5040259;28;20125;-81
2022/04/24 01:42:04;;;;;;;8.55;4.32;;;;;;;;;;5037514;28;20055;-81
2022/04/24 01:44:30;;;;;;;7.57;3.83;;;;;;;;;;5041510;28;20042;-81
2022/04/24 01:46:56;;;;;;;7.63;4.57;;;;;;;;;;5040771;28;20468;-80
2022/04/24 01:49:22;;;;;;;6.53;3.80;;;;;;;;;;5053510;28;20116;-81
2022/04/24 01:51:49;;;;;;;6.28;3.92;;;;;;;;;;5054772;28;20088;-81
2022/04/24 01:54:15;;;;;;;7.57;4.32;;;;;;;;;;5041748;28;20092;-80
2022/04/24 01:56:42;;;;;;;7.45;3.80;;;;;;;;;;5037422;28;21222;-80
2022/04/24 01:59:08;;;;;;;8.10;3.95;;;;;;;;;;5040250;28;20664;-81
2022/04/24 02:01:36;;;;;;;9.35;4.55;;;;;;;;;;5039038;28;20052;-81
2022/04/24 02:04:02;;;;;;;6.78;3.97;;;;;;;;;;5036911;28;20069;-81
2022/04/24 02:06:28;;;;;;;7.85;4.47;;;;;;;;;;5052927;28;20037;-81
2022/04/24 02:08:54;;;;;;;7.30;4.18;;;;;;;;;;5039130;28;20099;-81
2022/04/24 02:11:21;;;;;;;8.15;5.10;;;;;;;;;;5037880;28;20119;-81
2022/04/24 02:13:47;;;;;;;7.82;4.20;;;;;;;;;;5054219;28;20523;-80
2022/04/24 02:16:13;;;;;;;8.68;4.90;;;;;;;;;;5042731;28;20045;-80
2022/04/24 02:18:39;;;;;;;5.35;3.53;;;;;;;;;;5029512;28;20049;-80
2022/04/24 02:21:05;;;;;;;9.07;4.93;;;;;;;;;;5028116;28;20230;-80
2022/04/24 02:23:32;;;;;;;10.60;4.50;;;;;;;;;;5041295;28;20575;-80
2022/04/24 02:25:58;;;;;;;7.05;5.10;;;;;;;;;;5028221;28;20156;-80
2022/04/24 02:28:24;;;;;;;6.53;4.15;;;;;;;;;;5037543;28;20049;-80
2022/04/24 02:30:51;;;;;;;7.25;4.25;;;;;;;;;;5042028;28;20049;-80
2022/04/24 02:33:17;;;;;;;8.73;4.70;;;;;;;;;;5037648;28;20041;-80
2022/04/24 02:35:43;;;;;;;5.15;3.20;;;;;;;;;;5024580;28;20042;-80
2022/04/24 02:38:09;;;;;;;7.40;3.70;;;;;;;;;;5027261;28;20052;-80
2022/04/24 02:40:35;;;;;;;6.95;3.95;;;;;;;;;;5041941;28;20189;-80
2022/04/24 02:43:01;;;;;;;6.28;4.57;;;;;;;;;;5037812;28;20052;-80
2022/04/24 02:45:27;;;;;;;7.05;3.97;;;;;;;;;;5022928;28;20037;-81
2022/04/24 02:47:54;;;;;;;6.03;3.67;;;;;;;;;;5025071;28;20045;-81
2022/04/24 02:50:20;;;;;;;6.63;4.20;;;;;;;;;;5029726;28;20092;-81
2022/04/24 02:52:50;;;;;;;5.88;3.45;;;;;;;;;;5024387;28;20640;-80
2022/04/24 02:55:17;;;;;;;6.97;4.88;;;;;;;;;;5042415;28;20173;-80
2022/04/24 02:57:44;;;;;;;7.63;4.40;;;;;;;;;;5039673;28;20038;-80
2022/04/24 03:00:10;;;;;;;8.65;4.13;;;;;;;;;;5023860;28;20041;-79
2022/04/24 03:02:43;;;;;;;7.63;3.65;;;;;;;;;;5024304;28;20518;-80
2022/04/24 03:05:10;;;;;;;7.80;3.90;;;;;;;;;;5028755;28;20056;-79
2022/04/24 03:07:36;;;;;;;6.88;4.20;;;;;;;;;;5027861;28;20535;-80
2022/04/24 03:10:03;;;;;;;9.75;4.90;;;;;;;;;;5038589;28;20959;-80
2022/04/24 03:12:30;;;;;;;8.85;4.47;;;;;;;;;;5043081;28;20790;-80
2022/04/24 03:14:56;;;;;;;7.38;4.93;;;;;;;;;;5025869;28;20037;-80
2022/04/24 03:17:23;;;;;;;8.38;4.93;;;;;;;;;;5028738;28;20045;-80
2022/04/24 03:19:49;;;;;;;7.55;4.43;;;;;;;;;;5037994;28;20037;-80
2022/04/24 03:22:15;;;;;;;10.27;4.80;;;;;;;;;;5027198;28;20114;-80
2022/04/24 03:24:41;;;;;;;4.90;3.75;;;;;;;;;;5039661;28;20041;-80
2022/04/24 03:27:07;;;;;;;7.68;5.05;;;;;;;;;;5026717;28;20080;-80
2022/04/24 03:29:33;;;;;;;11.75;4.90;;;;;;;;;;5023236;28;20072;-80
2022/04/24 03:32:00;;;;;;;10.75;4.85;;;;;;;;;;5029470;28;20534;-80
2022/04/24 03:34:26;;;;;;;8.10;4.88;;;;;;;;;;5041676;28;20114;-80
2022/04/24 03:36:52;;;;;;;8.63;5.03;;;;;;;;;;5043879;28;20037;-80
2022/04/24 03:39:20;;;;;;;9.07;4.38;;;;;;;;;;5027013;28;20065;-80
2022/04/24 03:41:46;;;;;;;7.82;4.55;;;;;;;;;;5025467;28;20037;-80
2022/04/24 03:44:12;;;;;;;8.77;5.30;;;;;;;;;;5024383;28;20680;-80
2022/04/24 03:46:38;;;;;;;9.48;5.57;;;;;;;;;;5044391;28;20150;-80
2022/04/24 03:49:04;;;;;;;8.82;4.65;;;;;;;;;;5027301;28;20539;-79
2022/04/24 03:51:31;;;;;;;5.60;4.53;;;;;;;;;;5035168;28;20042;-79
2022/04/24 03:53:57;;;;;;;8.43;5.55;;;;;;;;;;5035287;28;20045;-79
2022/04/24 03:56:23;;;;;;;8.93;4.85;;;;;;;;;;5033218;28;20128;-79
2022/04/24 03:58:49;;;;;;;7.55;4.85;;;;;;;;;;5034917;28;20464;-79
2022/04/24 04:01:15;;;;;;;7.13;4.60;;;;;;;;;;5048998;28;20095;-79
2022/04/24 04:03:41;;;;;;;9.57;5.28;;;;;;;;;;5035845;28;20058;-79
2022/04/24 04:06:08;;;;;;;7.65;4.90;;;;;;;;;;5033928;28;20048;-79
2022/04/24 04:08:34;;;;;;;8.32;4.68;;;;;;;;;;5031438;28;20041;-79
2022/04/24 04:11:00;;;;;;;8.88;5.10;;;;;;;;;;5049914;28;20053;-80
2022/04/24 04:13:26;;;;;;;12.13;4.95;;;;;;;;;;5034353;28;20071;-79
2022/04/24 04:15:53;;;;;;;7.65;4.70;;;;;;;;;;5049303;28;20038;-79
2022/04/24 04:18:19;;;;;;;9.07;4.38;;;;;;;;;;5033089;28;20330;-79
2022/04/24 04:20:45;;;;;;;7.97;4.97;;;;;;;;;;5033037;28;20109;-79
2022/04/24 04:23:11;;;;;;;6.97;4.55;;;;;;;;;;5035016;28;20105;-79
2022/04/24 04:25:37;;;;;;;13.80;5.95;;;;;;;;;;5032742;28;21160;-80
2022/04/24 04:28:03;;;;;;;8.95;5.20;;;;;;;;;;5047290;28;20049;-80
2022/04/24 04:30:30;;;;;;;8.50;5.20;;;;;;;;;;5030697;28;20128;-80
2022/04/24 04:32:56;;;;;;;8.90;4.80;;;;;;;;;;5051918;28;21000;-80
2022/04/24 04:35:25;;;;;;;8.38;5.00;;;;;;;;;;5048816;28;20042;-80
2022/04/24 04:37:51;;;;;;;7.63;5.18;;;;;;;;;;5031741;28;20045;-79
2022/04/24 04:40:23;;;;;;;5.85;4.40;;;;;;;;;;5048064;28;20062;-79
2022/04/24 04:42:49;;;;;;;;;;;;;;;;;;5048553;28;20045;-80
2022/04/24 04:45:16;;;;;;;9.55;4.97;;;;;;;;;;5032521;28;19932;-79
2022/04/24 04:47:42;;;;;;;7.57;4.88;;;;;;;;;;5047747;28;20045;-79
2022/04/24 04:50:09;;;;;;;12.93;5.43;;;;;;;;;;5030466;28;20503;-79
2022/04/24 04:52:35;;;;;;;9.05;5.57;;;;;;;;;;5035732;28;20056;-79
2022/04/24 04:55:02;;;;;;;9.65;5.78;;;;;;;;;;5034342;28;20045;-79
2022/04/24 04:57:28;;;;;;;9.32;5.85;;;;;;;;;;5033270;28;20083;-81
2022/04/24 04:59:54;;;;;;;11.77;6.15;;;;;;;;;;5035036;28;20042;-80
2022/04/24 05:02:20;;;;;;;9.52;5.65;;;;;;;;;;5046682;28;20045;-79
2022/04/24 05:04:46;;;;;;;9.43;5.30;;;;;;;;;;5050037;28;20054;-79
2022/04/24 05:07:13;;;;;;;8.80;5.07;;;;;;;;;;5034346;28;20535;-80
2022/04/24 05:09:39;;;;;;;8.70;5.30;;;;;;;;;;5028190;28;20070;-80
2022/04/24 05:12:07;;;;;;;8.05;5.25;;;;;;;;;;5034113;28;20101;-79
2022/04/24 05:14:33;;;;;;;9.27;5.47;;;;;;;;;;5032949;28;20069;-81
2022/04/24 05:16:59;;;;;;;8.15;5.13;;;;;;;;;;5034445;28;20048;-80
2022/04/24 05:19:25;;;;;;;8.45;4.72;;;;;;;;;;5052133;28;20041;-81
2022/04/24 05:21:55;;;;;;;11.63;6.40;;;;;;;;;;5033107;28;20037;-81
2022/04/24 05:24:21;;;;;;;11.10;5.78;;;;;;;;;;5046177;28;20060;-81
2022/04/24 05:26:47;;;;;;;11.05;5.72;;;;;;;;;;5048839;28;20041;-80
2022/04/24 05:29:14;;;;;;;10.05;4.82;;;;;;;;;;5033748;28;20041;-80
2022/04/24 05:31:40;;;;;;;9.13;5.03;;;;;;;;;;5046242;28;20029;-81
2022/04/24 05:34:06;;;;;;;11.18;6.18;;;;;;;;;;5044392;28;21634;-81
2022/04/24 05:36:32;;;;;;;9.95;5.18;;;;;;;;;;5032431;28;20127;-79
2022/04/24 05:38:58;;;;;;;10.52;5.07;;;;;;;;;;5034884;28;20070;-80
2022/04/24 05:41:24;;;;;;;10.75;6.25;;;;;;;;;;5046151;28;20041;-79
2022/04/24 05:43:50;;;;;;;9.82;5.55;;;;;;;;;;5033377;28;20072;-80
2022/04/24 05:46:17;;;;;;;10.02;5.60;;;;;;;;;;5033084;28;20046;-79
2022/04/24 05:48:43;;;;;;;8.50;5.20;;;;;;;;;;5030869;28;20043;-79
2022/04/24 05:51:09;;;;;;;9.18;5.18;;;;;;;;;;5051272;28;20534;-79
2022/04/24 05:53:35;;;;;;;9.82;5.38;;;;;;;;;;5037100;28;20056;-79
2022/04/24 05:56:01;;;;;;;7.72;5.30;;;;;;;;;;5033518;28;20041;-79
2022/04/24 05:58:27;;;;;;;7.68;4.75;;;;;;;;;;5034932;28;20049;-80
2022/04/24 06:00:53;;;;;;;10.90;5.35;;;;;;;;;;5032459;28;20045;-80
2022/04/24 06:03:20;;;;;;;7.72;5.05;;;;;;;;;;5038637;28;20067;-80
2022/04/24 06:05:47;;;;;;;9.48;4.63;;;;;;;;;;5035805;28;20151;-80
2022/04/24 06:08:14;;;;;;;9.02;5.78;;;;;;;;;;5034559;28;20536;-80
2022/04/24 06:10:40;;;;;;;7.45;5.07;;;;;;;;;;5031794;28;20049;-81
2022/04/24 06:13:06;;;;;;;11.18;5.05;;;;;;;;;;5050193;28;20092;-80
2022/04/24 06:15:32;;;;;;;8.38;5.03;;;;;;;;;;5032533;28;20124;-81
2022/04/24 06:17:59;;;;;;;8.30;5.57;;;;;;;;;;5039947;28;20045;-80
2022/04/24 06:20:26;;;;;;;10.95;5.40;;;;;;;;;;5052799;28;20042;-80
2022/04/24 06:22:56;;;;;;;6.40;4.38;;;;;;;;;;5048943;28;20048;-80
2022/04/24 06:25:32;;;;;;;8.38;5.25;;;;;;;;;;5033695;28;20077;-80
2022/04/24 06:27:59;;;;;;;8.30;4.70;;;;;;;;;;5052232;28;20056;-80
2022/04/24 06:30:26;;;;;;;8.75;5.40;;;;;;;;;;5050835;28;20943;-80
2022/04/24 06:32:52;;;;;;;11.27;5.50;;;;;;;;;;5053970;28;20043;-80
2022/04/24 06:35:19;;;;;;;9.68;5.55;;;;;;;;;;5038301;28;20541;-80
2022/04/24 06:37:46;;;;;;;9.82;5.50;;;;;;;;;;5031506;28;20787;-80
2022/04/24 06:40:13;;;;;;;12.77;5.68;;;;;;;;;;5050087;28;20070;-79
2022/04/24 06:42:55;;;;;;;8.48;4.35;;;;;;;;;;5034579;28;20116;-79
2022/04/24 06:45:25;;;;;;;9.73;4.90;;;;;;;;;;5032612;28;20057;-80
2022/04/24 06:47:51;;;;;;;7.60;4.65;;;;;;;;;;5033276;28;20046;-79
2022/04/24 06:50:17;;;;;;;6.40;4.18;;;;;;;;;;5032960;28;20045;-79
2022/04/24 06:52:44;;;;;;;10.88;4.82;;;;;;;;;;5034597;28;20039;-80
2022/04/24 06:55:10;;;;;;;8.88;5.60;;;;;;;;;;5047315;28;20061;-79
2022/04/24 06:57:36;;;;;;;9.68;5.35;;;;;;;;;;5030277;28;20040;-79
2022/04/24 07:00:04;;;;;;;8.57;4.80;;;;;;;;;;5049664;28;20103;-79
2022/04/24 07:02:30;;;;;;;8.32;5.05;;;;;;;;;;5051937;28;20060;-80
2022/04/24 07:04:56;;;;;;;11.45;4.97;;;;;;;;;;5035138;28;20057;-79
2022/04/24 07:07:22;;;;;;;8.55;5.40;;;;;;;;;;5032829;28;20151;-80
2022/04/24 07:09:48;;;;;;;9.02;5.55;;;;;;;;;;5034458;28;20524;-79
2022/04/24 07:12:14;;;;;;;7.70;5.50;;;;;;;;;;5050238;28;20033;-79
2022/04/24 07:14:40;;;;;;;9.82;5.13;;;;;;;;;;5035629;28;20465;-80
2022/04/24 07:17:06;;;;;;;11.43;4.80;;;;;;;;;;5035309;28;21013;-80
2022/04/24 07:19:32;;;;;;;11.50;5.78;;;;;;;;;;5034392;28;20507;-80
2022/04/24 07:21:59;;;;;;;11.10;5.40;;;;;;;;;;5034208;28;21300;-80
2022/04/24 07:24:25;;;;;;;9.18;5.25;;;;;;;;;;5030565;28;20056;-80
2022/04/24 07:26:51;;;;;;;15.15;5.53;;;;;;;;;;5050981;28;20064;-80
2022/04/24 07:29:18;;;;;;;8.43;4.80;;;;;;;;;;5032313;28;20072;-80
2022/04/24 07:31:44;;;;;;;10.35;4.82;;;;;;;;;;5033242;28;20041;-81
2022/04/24 07:34:10;;;;;;;6.60;4.38;;;;;;;;;;5052183;28;20076;-80
2022/04/24 07:36:37;;;;;;;10.25;5.32;;;;;;;;;;5049994;28;20038;-80
2022/04/24 07:39:03;;;;;;;11.00;5.40;;;;;;;;;;5049465;28;20049;-79
2022/04/24 07:41:29;;;;;;;10.00;5.35;;;;;;;;;;5034799;28;20037;-79
2022/04/24 07:43:55;;;;;;;8.70;4.60;;;;;;;;;;5031455;28;20052;-79
2022/04/24 07:46:23;;;;;;;9.48;5.22;;;;;;;;;;5031710;28;20488;-80
2022/04/24 07:48:49;;;;;;;9.88;5.55;;;;;;;;;;5033241;28;20053;-79
2022/04/24 07:51:15;;;;;;;8.93;6.03;;;;;;;;;;5051205;28;21763;-80
2022/04/24 07:53:42;;;;;;;6.30;3.92;;;;;;;;;;5032859;28;20119;-79
2022/04/24 07:56:09;;;;;;;9.88;6.30;;;;;;;;;;5032411;28;20041;-78
2022/04/24 07:58:35;;;;;;;9.27;5.05;;;;;;;;;;5031895;28;20049;-78
2022/04/24 08:01:01;;;;;;;12.18;5.38;;;;;;;;;;5035750;28;20532;-78
2022/04/24 08:03:27;;;;;;;13.43;6.40;;;;;;;;;;5036350;28;20127;-78
2022/04/24 08:05:53;;;;;;;7.03;4.30;;;;;;;;;;5052259;28;20041;-78
2022/04/24 08:08:43;;;;;;;7.10;4.55;;;;;;;;;;5163620;22;20053;-86
2022/04/24 08:11:21;;;;;;;8.23;4.72;;;;;;;;;;5090007;27;20131;-86
2022/04/24 08:13:59;;;;;;;7.53;5.15;;;;;;;;;;5091574;28;20041;-87
2022/04/24 08:16:38;;;;;;;9.70;5.88;;;;;;;;;;5099469;28;20063;-87
2022/04/24 08:19:27;;;;;;;8.80;5.32;;;;;;;;;;5102657;27;20159;-85
2022/04/24 08:22:15;;;;;;;9.32;5.45;;;;;;;;;;5064470;28;20056;-84
2022/04/24 08:25:04;;;;;;;7.70;4.90;;;;;;;;;;5042741;28;20044;-85
2022/04/24 08:28:07;;;;;;;;;;;;;;;;;;;;;
2022/04/24 08:30:49;;;;;;;9.85;6.65;;;;;;;;;;5061829;28;20901;-85
2022/04/24 08:33:43;;;;;;;11.93;6.50;;;;;;;;;;5041671;28;20610;-84
2022/04/24 08:39:44;;;;;;;11.15;6.15;;;;;;;;;;4997056;28;20045;-84
2022/04/24 08:42:41;;;;;;;;;;;;;;;;;;;;;
2022/04/24 08:45:36;;;;;;;11.23;6.00;;;;;;;;;;5057093;28;39194;-84
2022/04/24 08:48:08;;;;;;;10.02;5.13;;;;;;;;;;5017606;28;20559;-85
2022/04/24 08:50:45;;;;;;;12.93;7.55;;;;;;;;;;5000593;28;20065;-84
2022/04/24 08:53:17;;;;;;;11.20;6.03;;;;;;;;;;5014043;28;20044;-84
2022/04/24 08:56:17;;;;;;;11.00;5.07;;;;;;;;;;5034844;28;20160;-84
2022/04/24 08:58:58;;;;;;;;;;;;;;;;;;;;;
2022/04/24 09:04:27;;;;;;;13.50;7.47;;;;;;;;;;5032633;28;20042;-84
2022/04/24 09:07:20;;;;;;;11.07;6.95;;;;;;;;;;5021094;28;20058;-84
2022/04/24 09:10:12;;;;;;;16.52;7.10;;;;;;;;;;5027542;28;20115;-84
2022/04/24 09:12:41;;;;;;;;;;;;;;;;;;5046231;28;20595;-85
2022/04/24 09:15:18;;;;;;;9.30;5.88;;;;;;;;;;5071256;28;19967;-84
2022/04/24 09:21:34;;;;;;;11.55;6.57;;;;;;;;;;5078397;28;20049;-84
2022/04/24 09:24:11;;;;;;;10.57;6.55;;;;;;;;;;5085214;28;20102;-84
2022/04/24 09:27:14;;;;;;;;;;;;;;;;;;;;;
2022/04/24 09:30:07;;;;;;;;;;;;;;;;;;;;;
2022/04/24 09:32:57;;;;;;;11.85;7.43;;;;;;;;;;5075507;28;46869;-84
2022/04/24 09:35:53;;;;;;;11.07;7.30;;;;;;;;;;5078445;28;20079;-84
2022/04/24 09:38:37;;;;;;;9.80;5.10;;;;;;;;;;5073587;28;20060;-84
2022/04/24 09:44:46;;;;;;;;;;;;;;;;;;;;;
2022/04/24 09:47:16;;;;;;;12.52;7.05;;;;;;;;;;5076041;28;44028;-84
2022/04/24 09:49:59;;;;;;;;;;;;;;;;;;;;;
2022/04/24 09:52:42;;;;;;;10.13;6.35;;;;;;;;;;5077352;28;38870;-84
2022/04/24 09:55:17;;;;;;;;;;;;;;;;;;5091305;28;20060;-84
2022/04/24 09:58:04;;;;;;;10.73;7.13;;;;;;;;;;5076206;28;19920;-84
2022/04/24 10:00:40;;;;;;;12.63;8.43;;;;;;;;;;5087003;28;20036;-85
2022/04/24 10:03:15;;;;;;;11.95;6.80;;;;;;;;;;5091588;27;20045;-85
2022/04/24 10:06:10;;;;;;;12.57;7.22;;;;;;;;;;5091590;28;20060;-84
2022/04/24 10:09:07;;;;;;;;;;;;;;;;;;;;;
2022/04/24 10:12:16;;;;;;;12.23;7.75;;;;;;;;;;5074154;28;20047;-84
2022/04/24 10:15:12;;;;;;;9.82;6.18;;;;;;;;;;5090020;28;20040;-83
2022/04/24 10:18:08;;;;;;;13.82;7.93;;;;;;;;;;5092273;28;20139;-84
2022/04/24 10:20:55;;;;;;;11.27;6.95;;;;;;;;;;5070485;28;20052;-83
2022/04/24 10:23:50;;;;;;;12.50;7.05;;;;;;;;;;5080942;27;20074;-84
2022/04/24 10:26:25;;;;;;;13.50;7.82;;;;;;;;;;5076132;28;20486;-84
2022/04/24 10:29:06;;;;;;;16.70;9.13;;;;;;;;;;5088058;27;20082;-83
2022/04/24 10:31:55;;;;;;;11.93;7.03;;;;;;;;;;5097620;27;20969;-84
2022/04/24 10:34:27;;;;;;;13.15;8.23;;;;;;;;;;5075511;28;20118;-84
2022/04/24 10:37:09;;;;;;;12.07;8.05;;;;;;;;;;5077118;28;21122;-84
2022/04/24 10:39:43;;;;;;;13.27;7.90;;;;;;;;;;5081852;28;20600;-85
2022/04/24 10:42:12;;;;;;;13.05;8.07;;;;;;;;;;5095252;27;20446;-83
2022/04/24 10:44:57;;;;;;;13.15;8.85;;;;;;;;;;5077880;28;20049;-83
2022/04/24 10:47:47;;;;;;;14.00;9.45;;;;;;;;;;5075170;28;20080;-83
2022/04/24 10:50:55;;;;;;;12.73;5.97;;;;;;;;;;5046469;28;20049;-85
2022/04/24 10:53:30;;;;;;;14.45;9.00;;;;;;;;;;5006581;28;20074;-87
2022/04/24 10:56:09;;;;;;;15.15;8.93;;;;;;;;;;5059453;28;20052;-88
2022/04/24 10:58:50;;;;;;;14.15;9.90;;;;;;;;;;5051697;28;20073;-83
2022/04/24 11:01:35;;;;;;;13.98;9.32;;;;;;;;;;5037954;28;20054;-84
2022/04/24 11:04:12;;;;;;;11.10;7.70;;;;;;;;;;5037890;28;20136;-81
2022/04/24 11:07:17;;;;;;;12.93;7.70;;;;;;;;;;5061340;28;20886;-86
2022/04/24 11:12:55;;;;;;;12.73;7.93;;;;;;;;;;5052789;28;20060;-87
2022/04/24 11:15:37;;;;;;;10.98;8.07;;;;;;;;;;5035729;28;20049;-93
2022/04/24 11:18:22;;;;;;;11.77;8.30;;;;;;;;;;5036489;28;20053;-86
2022/04/24 11:21:16;;;;;;;15.75;9.75;;;;;;;;;;5034348;28;20041;-84
2022/04/24 11:24:03;;;;;;;;;;;;;;;;;;;;;
2022/04/24 11:26:55;;;;;;;14.65;8.38;;;;;;;;;;5049316;28;42755;-83
2022/04/24 11:29:24;;;;;;;11.57;7.90;;;;;;;;;;5029549;28;20121;-82
2022/04/24 11:31:52;;;;;;;13.55;8.13;;;;;;;;;;5045454;28;20046;-82
2022/04/24 11:34:34;;;;;;;12.40;8.55;;;;;;;;;;5046689;28;20045;-83
2022/04/24 11:37:10;;;;;;;11.27;7.80;;;;;;;;;;5037545;28;20170;-82
2022/04/24 11:39:45;;;;;;;13.13;8.52;;;;;;;;;;5051797;28;20091;-82
2022/04/24 11:42:13;;;;;;;13.80;8.25;;;;;;;;;;5048374;28;20108;-83
2022/04/24 11:50:23;;;;;;;12.77;8.07;;;;;;;;;;5047505;28;20136;-83
2022/04/24 11:52:57;;;;;;;13.32;8.48;;;;;;;;;;5071286;28;20052;-82
2022/04/24 11:56:02;;;;;;;15.77;10.10;;;;;;;;;;5087776;28;20049;-83
2022/04/24 11:58:46;;;;;;;13.00;7.97;;;;;;;;;;5070300;28;20047;-84
2022/04/24 12:01:36;;;;;;;15.27;8.95;;;;;;;;;;5074365;28;20077;-83
2022/04/24 12:04:17;;;;;;;11.55;7.30;;;;;;;;;;5090848;28;20547;-83
2022/04/24 12:06:51;;;;;;;11.35;7.60;;;;;;;;;;5076119;28;20033;-83
2022/04/24 12:09:59;;;;;;;12.98;8.48;;;;;;;;;;5078222;28;20102;-83
2022/04/24 12:12:47;;;;;;;15.18;8.18;;;;;;;;;;5053699;28;20049;-82
2022/04/24 12:15:26;;;;;;;12.57;7.97;;;;;;;;;;5091216;28;20745;-82
2022/04/24 12:18:03;;;;;;;12.90;8.45;;;;;;;;;;5087975;28;20049;-81
2022/04/24 12:20:54;;;;;;;12.15;8.15;;;;;;;;;;5085641;28;20056;-87
2022/04/24 12:23:31;;;;;;;11.93;8.75;;;;;;;;;;5070950;28;20040;-83
2022/04/24 12:26:13;;;;;;;;;;;;;;;;;;;;;
2022/04/24 12:28:52;;;;;;;;;;;;;;;;;;;;;
2022/04/24 12:31:37;;;;;;;13.27;9.48;;;;;;;;;;5082347;28;42411;-86
2022/04/24 12:34:22;;;;;;;14.15;8.65;;;;;;;;;;5109034;27;20147;-84
2022/04/24 12:37:03;;;;;;;13.98;9.65;;;;;;;;;;5107952;27;20098;-87
2022/04/24 12:39:43;;;;;;;13.93;8.93;;;;;;;;;;5091226;28;20048;-84
2022/04/24 12:45:40;;;;;;;;;;;;;;;;;;;;;
2022/04/24 12:51:17;;;;;;;9.70;7.07;;;;;;;;;;5096599;28;20052;-86
2022/04/24 12:54:09;;;;;;;5.57;3.33;;;;;;;;;;5077568;28;20048;-85
2022/04/24 12:56:44;;;;;;;10.32;5.95;;;;;;;;;;5080097;28;20056;-83
2022/04/24 12:59:19;;;;;;;13.35;7.70;;;;;;;;;;5078244;28;20044;-83
2022/04/24 13:01:57;;;;;;;12.25;7.57;;;;;;;;;;5082675;27;20443;-85
2022/04/24 13:04:58;;;;;;;11.98;7.90;;;;;;;;;;5093320;27;20123;-84
2022/04/24 13:07:39;;;;;;;9.35;6.30;;;;;;;;;;5071543;28;21163;-91
2022/04/24 13:10:18;;;;;;;;;;;;;;;;;;;;;
2022/04/24 13:13:15;;;;;;;9.93;5.95;;;;;;;;;;5059626;28;44200;-82
2022/04/24 13:18:37;;;;;;;7.97;5.97;;;;;;;;;;5069952;28;20064;-82
2022/04/24 13:21:03;;;;;;;;;;;;;;;;;;5047604;28;20072;-82
2022/04/24 13:23:49;;;;;;;11.60;6.93;;;;;;;;;;5056495;28;19912;-82
2022/04/24 13:26:30;;;;;;;9.10;6.30;;;;;;;;;;5065227;28;20048;-82
2022/04/24 13:29:03;;;;;;;9.77;6.72;;;;;;;;;;5057490;28;20033;-82
2022/04/24 13:31:35;;;;;;;7.25;5.00;;;;;;;;;;5050745;28;20041;-82
2022/04/24 13:34:03;;;;;;;;;;;;;;;;;;5070290;28;20104;-82
2022/04/24 13:36:32;;;;;;;10.40;6.97;;;;;;;;;;5057352;28;19920;-81
2022/04/24 13:38:58;;;;;;;12.55;7.28;;;;;;;;;;5047136;28;20033;-82
2022/04/24 13:41:27;;;;;;;11.68;7.80;;;;;;;;;;5062861;28;20624;-83
2022/04/24 13:43:53;;;;;;;9.70;6.30;;;;;;;;;;5074077;28;20088;-82
2022/04/24 13:46:20;;;;;;;12.75;7.32;;;;;;;;;;5085825;28;20044;-82
2022/04/24 13:49:09;;;;;;;11.70;7.47;;;;;;;;;;5083758;28;20040;-83
2022/04/24 13:51:56;;;;;;;12.65;8.23;;;;;;;;;;5079348;27;20056;-82
2022/04/24 13:54:29;;;;;;;10.27;7.03;;;;;;;;;;5065471;28;20089;-82
2022/04/24 13:57:28;;;;;;;11.07;7.47;;;;;;;;;;5091067;27;20053;-82
2022/04/24 14:02:51;;;;;;;10.40;5.70;;;;;;;;;;5071833;28;20049;-82
2022/04/24 14:05:22;;;;;;;13.45;7.15;;;;;;;;;;5071646;28;20045;-82
2022/04/24 14:07:49;;;;;;;11.70;7.28;;;;;;;;;;5064593;28;20453;-82
2022/04/24 14:10:15;;;;;;;12.38;7.68;;;;;;;;;;5068318;28;20041;-82
2022/04/24 14:12:41;;;;;;;13.90;6.45;;;;;;;;;;5077229;28;20058;-82
2022/04/24 14:15:08;;;;;;;11.10;7.35;;;;;;;;;;5087418;28;20055;-81
2022/04/24 14:17:34;;;;;;;11.10;7.28;;;;;;;;;;5092314;27;20040;-82
2022/04/24 14:20:01;;;;;;;10.77;7.20;;;;;;;;;;5090479;28;20066;-82
2022/04/24 14:22:27;;;;;;;12.27;6.75;;;;;;;;;;5091502;28;20040;-82
2022/04/24 14:24:53;;;;;;;12.48;7.57;;;;;;;;;;5091551;27;20036;-82
2022/04/24 14:27:29;;;;;;;10.95;6.95;;;;;;;;;;5079257;28;20042;-82
2022/04/24 14:30:06;;;;;;;7.55;4.70;;;;;;;;;;5073217;28;20478;-82
2022/04/24 14:32:47;;;;;;;10.55;6.30;;;;;;;;;;5099457;27;20043;-82
2022/04/24 14:35:18;;;;;;;7.88;4.90;;;;;;;;;;5094654;28;20032;-82
2022/04/24 14:37:52;;;;;;;10.23;6.50;;;;;;;;;;5097254;27;20727;-82
2022/04/24 14:40:35;;;;;;;;;;;;;;;;;;;;;
2022/04/24 14:43:14;;;;;;;9.98;7.00;;;;;;;;;;5096376;28;40402;-82
2022/04/24 14:56:53;;;;;;;10.75;7.63;;;;;;;;;;5093828;28;20527;-82
2022/04/24 14:59:31;;;;;;;8.00;5.57;;;;;;;;;;5076550;28;20919;-82
2022/04/24 15:02:05;;;;;;;9.70;7.38;;;;;;;;;;5079249;28;20043;-84
2022/04/24 15:04:42;;;;;;;9.55;7.03;;;;;;;;;;5092190;28;20128;-83
2022/04/24 15:07:18;;;;;;;9.93;7.32;;;;;;;;;;5102302;28;20036;-87
2022/04/24 15:10:03;;;;;;;;;;;;;;;;;;;;;
2022/04/24 15:12:52;;;;;;;10.20;6.05;;;;;;;;;;5104335;28;40025;-89
2022/04/24 15:15:43;;;;;;;10.77;6.88;;;;;;;;;;5086652;28;20481;-84
2022/04/24 15:18:20;;;;;;;9.15;5.95;;;;;;;;;;5094661;28;20111;-82
2022/04/24 15:21:08;;;;;;;9.90;6.10;;;;;;;;;;5087211;27;20555;-88
2022/04/24 15:23:44;;;;;;;8.32;5.22;;;;;;;;;;5088179;28;20056;-86
2022/04/24 15:26:22;;;;;;;10.07;6.07;;;;;;;;;;5087054;27;20051;-85
2022/04/24 15:28:53;;;;;;;9.20;6.28;;;;;;;;;;5072080;28;20044;-86
2022/04/24 15:31:47;;;;;;;10.43;5.83;;;;;;;;;;5092711;28;20087;-85
2022/04/24 15:34:24;;;;;;;8.35;5.68;;;;;;;;;;5080796;28;20848;-84
2022/04/24 15:36:58;;;;;;;7.03;5.00;;;;;;;;;;5089845;28;20036;-85
2022/04/24 15:40:02;;;;;;;12.95;6.22;;;;;;;;;;5073688;28;20063;-85
2022/04/24 15:42:40;;;;;;;7.72;5.38;;;;;;;;;;5029130;28;20053;-86
2022/04/24 15:48:44;;;;;;;;;;;;;;;;;;;;;
2022/04/24 15:51:37;;;;;;;8.27;4.90;;;;;;;;;;5096683;28;44429;-87
2022/04/24 15:54:16;;;;;;;8.98;5.65;;;;;;;;;;5060901;28;20189;-88
2022/04/24 15:56:56;;;;;;;8.93;5.22;;;;;;;;;;5076245;28;20048;-89
2022/04/24 15:59:31;;;;;;;6.70;4.63;;;;;;;;;;5090477;27;20074;-91
2022/04/24 16:02:17;;;;;;;8.40;6.70;;;;;;;;;;5092440;27;20075;-84
2022/04/24 16:04:49;;;;;;;6.57;4.30;;;;;;;;;;5092898;28;20040;-83
2022/04/24 16:07:18;;;;;;;;;;;;;;;;;;5090663;27;20044;-83
2022/04/24 16:09:46;;;;;;;7.63;5.07;;;;;;;;;;5074302;28;20123;-83
2022/04/24 16:12:17;;;;;;;6.75;4.88;;;;;;;;;;5074976;28;20050;-83
2022/04/24 16:14:55;;;;;;;6.95;5.13;;;;;;;;;;5075693;28;20076;-84
2022/04/24 16:17:24;;;;;;;6.50;4.95;;;;;;;;;;5094357;27;20112;-84
2022/04/24 16:20:01;;;;;;;9.07;4.88;;;;;;;;;;5076653;28;20043;-84
2022/04/24 16:22:33;;;;;;;6.65;4.40;;;;;;;;;;5076549;28;20071;-85
2022/04/24 16:25:09;;;;;;;8.43;5.03;;;;;;;;;;5094611;27;20043;-86
2022/04/24 16:27:38;;;;;;;8.30;5.63;;;;;;;;;;5076364;28;20054;-86
2022/04/24 16:30:12;;;;;;;9.40;5.75;;;;;;;;;;5089685;28;20525;-87
2022/04/24 16:32:47;;;;;;;7.50;4.88;;;;;;;;;;5092408;27;20121;-87
2022/04/24 16:35:34;;;;;;;7.57;4.57;;;;;;;;;;5088055;27;20072;-86
2022/04/24 16:38:08;;;;;;;6.72;4.82;;;;;;;;;;5072504;28;20548;-90
2022/04/24 16:43:44;;;;;;;6.45;4.47;;;;;;;;;;5090825;28;20538;-85
2022/04/24 16:46:26;;;;;;;6.85;4.38;;;;;;;;;;5074770;28;20039;-85
2022/04/24 16:49:00;;;;;;;;;;;;;;;;;;5076156;28;20051;-92
2022/04/24 17:00:02;;;;;;;9.27;5.55;;;;;;;;;;5105074;28;20063;-85
2022/04/24 17:02:29;;;;;;;6.78;4.70;;;;;;;;;;5102922;27;20061;-85
2022/04/24 17:05:06;;;;;;;7.80;5.50;;;;;;;;;;5110172;28;20032;-82
2022/04/24 17:07:39;;;;;;;7.95;5.90;;;;;;;;;;5103301;28;20041;-83
2022/04/24 17:10:13;;;;;;;7.57;5.75;;;;;;;;;;5092651;28;20043;-83
2022/04/24 17:12:44;;;;;;;6.85;5.05;;;;;;;;;;5096172;28;20579;-83
2022/04/24 17:15:26;;;;;;;9.07;6.25;;;;;;;;;;5081283;28;20569;-85
2022/04/24 17:17:55;;;;;;;8.95;5.50;;;;;;;;;;5092283;28;20044;-84
2022/04/24 17:20:33;;;;;;;8.73;6.20;;;;;;;;;;5081122;28;20559;-81
2022/04/24 17:23:10;;;;;;;6.88;5.32;;;;;;;;;;5079777;28;20047;-84
2022/04/24 17:25:48;;;;;;;7.15;5.38;;;;;;;;;;5091023;28;20045;-83
2022/04/24 17:28:20;;;;;;;9.95;6.03;;;;;;;;;;5097865;27;20212;-83
2022/04/24 17:30:49;;;;;;;9.60;5.95;;;;;;;;;;5080127;28;20048;-83
2022/04/24 17:33:27;;;;;;;10.38;6.55;;;;;;;;;;5077089;28;20044;-83
2022/04/24 17:36:02;;;;;;;9.30;5.57;;;;;;;;;;5090668;27;20048;-83
2022/04/24 17:38:34;;;;;;;9.30;5.80;;;;;;;;;;5081815;28;20727;-83